createdAt,value
2018-09-30T00:00:09.532Z,19.51
2018-09-30T00:01:09.544Z,18.66
2018-09-30T00:02:09.584Z,18.95
2018-09-30T00:03:09.615Z,18.29
2018-09-30T00:04:09.651Z,17.81
2018-09-30T00:05:09.698Z,17.24
2018-09-30T00:06:09.726Z,17.33
2018-09-30T00:07:09.764Z,17.33
2018-09-30T00:08:09.808Z,17.24
2018-09-30T00:09:09.838Z,17.14
2018-09-30T00:10:09.875Z,17.14
2018-09-30T00:11:09.909Z,16.67
2018-09-30T00:12:09.947Z,16.96
2018-09-30T00:13:09.987Z,17.71
2018-09-30T00:14:10.022Z,18.76
2018-09-30T00:15:10.060Z,18.76
2018-09-30T00:16:10.099Z,18.95
2018-09-30T00:17:10.137Z,18.66
2018-09-30T00:18:10.171Z,18.09
2018-09-30T00:19:10.209Z,18.00
2018-09-30T00:20:10.250Z,18.38
2018-09-30T00:21:10.280Z,18.76
2018-09-30T00:22:10.317Z,18.76
2018-09-30T00:23:10.355Z,18.38
2018-09-30T00:24:10.394Z,18.48
2018-09-30T00:25:10.439Z,18.95
2018-09-30T00:26:10.472Z,19.04
2018-09-30T00:27:10.501Z,20.18
2018-09-30T00:28:10.541Z,20.47
2018-09-30T00:29:10.580Z,21.31
2018-09-30T00:30:10.612Z,21.60
2018-09-30T00:31:10.649Z,21.41
2018-09-30T00:32:10.692Z,21.50
2018-09-30T00:33:10.728Z,21.12
2018-09-30T00:34:10.761Z,21.79
2018-09-30T00:35:10.797Z,21.22
2018-09-30T00:36:10.884Z,21.88
2018-09-30T00:37:10.869Z,22.74
2018-09-30T00:38:10.904Z,21.79
2018-09-30T00:39:10.942Z,21.03
2018-09-30T00:40:10.980Z,20.65
2018-09-30T00:41:11.019Z,21.22
2018-09-30T00:42:11.052Z,21.31
2018-09-30T00:43:11.089Z,21.79
2018-09-30T00:44:11.130Z,21.31
2018-09-30T00:45:11.165Z,21.12
2018-09-30T00:46:11.201Z,21.50
2018-09-30T00:47:11.236Z,21.69
2018-09-30T00:48:11.274Z,21.97
2018-09-30T00:49:11.311Z,22.64
2018-09-30T00:50:11.348Z,22.34
2018-09-30T00:51:11.395Z,22.25
2018-09-30T00:52:11.423Z,22.44
2018-09-30T00:53:11.459Z,22.44
2018-09-30T00:54:11.495Z,21.21
2018-09-30T00:55:11.535Z,19.98
2018-09-30T00:56:11.569Z,18.84
2018-09-30T00:57:11.610Z,18.46
2018-09-30T00:58:11.642Z,18.56
2018-09-30T00:59:11.688Z,19.79
2018-09-30T01:00:11.722Z,19.98
2018-09-30T01:01:11.753Z,18.56
2018-09-30T01:02:11.790Z,17.52
2018-09-30T01:03:11.826Z,17.23
2018-09-30T01:04:11.867Z,16.19
2018-09-30T01:05:11.900Z,15.15
2018-09-30T01:06:11.946Z,14.96
2018-09-30T01:07:11.971Z,15.44
2018-09-30T01:08:12.011Z,15.53
2018-09-30T01:09:12.054Z,15.91
2018-09-30T01:10:12.082Z,16.38
2018-09-30T01:11:12.120Z,16.00
2018-09-30T01:12:12.156Z,16.00
2018-09-30T01:13:12.197Z,16.01
2018-09-30T01:14:12.228Z,16.49
2018-09-30T01:15:12.269Z,16.38
2018-09-30T01:16:12.304Z,16.38
2018-09-30T01:17:12.342Z,16.66
2018-09-30T01:18:12.376Z,17.14
2018-09-30T01:19:12.413Z,17.33
2018-09-30T01:20:12.454Z,18.37
2018-09-30T01:21:12.488Z,18.27
2018-09-30T01:22:12.576Z,17.80
2018-09-30T01:23:12.562Z,17.61
2018-09-30T01:24:12.598Z,18.08
2018-09-30T01:25:12.634Z,18.65
2018-09-30T01:26:12.671Z,18.75
2018-09-30T01:27:12.707Z,19.22
2018-09-30T01:28:12.746Z,18.56
2018-09-30T01:29:12.783Z,18.08
2018-09-30T01:30:12.820Z,18.18
2018-09-30T01:31:12.855Z,17.80
2018-09-30T01:32:12.905Z,17.52
2018-09-30T01:33:12.934Z,17.33
2018-09-30T01:34:12.972Z,17.33
2018-09-30T01:35:13.000Z,17.23
2018-09-30T01:36:13.039Z,17.33
2018-09-30T01:37:13.079Z,18.08
2018-09-30T01:38:13.121Z,18.08
2018-09-30T01:39:13.151Z,18.65
2018-09-30T01:40:13.184Z,18.75
2018-09-30T01:41:13.221Z,18.56
2018-09-30T01:42:13.261Z,17.42
2018-09-30T01:43:13.293Z,17.33
2018-09-30T01:44:13.333Z,17.61
2018-09-30T01:45:13.367Z,17.80
2018-09-30T01:46:13.403Z,17.42
2018-09-30T01:47:13.440Z,17.42
2018-09-30T01:48:13.478Z,17.52
2018-09-30T01:49:13.514Z,17.90
2018-09-30T01:50:13.551Z,18.37
2018-09-30T01:51:13.587Z,18.56
2018-09-30T01:52:13.628Z,19.03
2018-09-30T01:53:13.668Z,19.79
2018-09-30T01:54:13.696Z,20.07
2018-09-30T01:55:13.732Z,19.98
2018-09-30T01:56:13.771Z,20.54
2018-09-30T01:57:13.806Z,21.02
2018-09-30T01:58:13.845Z,20.73
2018-09-30T01:59:13.878Z,20.83
2018-09-30T02:00:13.917Z,19.60
2018-09-30T02:01:13.961Z,18.94
2018-09-30T02:02:14.001Z,18.46
2018-09-30T02:03:14.026Z,18.56
2018-09-30T02:04:14.063Z,18.56
2018-09-30T02:05:14.106Z,17.61
2018-09-30T02:06:14.135Z,16.95
2018-09-30T02:07:14.174Z,17.04
2018-09-30T02:08:14.210Z,17.23
2018-09-30T02:09:14.245Z,17.90
2018-09-30T02:10:14.283Z,17.23
2018-09-30T02:11:14.319Z,17.04
2018-09-30T02:12:14.359Z,16.38
2018-09-30T02:13:14.392Z,17.33
2018-09-30T02:14:14.430Z,17.33
2018-09-30T02:15:14.463Z,17.14
2018-09-30T02:16:14.500Z,17.04
2018-09-30T02:17:14.546Z,16.66
2018-09-30T02:18:14.576Z,17.23
2018-09-30T02:19:14.641Z,16.76
2018-09-30T02:20:14.655Z,16.57
2018-09-30T02:21:14.685Z,16.76
2018-09-30T02:22:14.827Z,17.04
2018-09-30T02:23:14.764Z,17.52
2018-09-30T02:24:14.794Z,17.99
2018-09-30T02:25:14.831Z,18.56
2018-09-30T02:26:14.873Z,18.65
2018-09-30T02:27:14.902Z,19.60
2018-09-30T02:28:14.944Z,18.94
2018-09-30T02:29:14.974Z,18.56
2018-09-30T02:30:15.017Z,19.03
2018-09-30T02:31:15.049Z,18.75
2018-09-30T02:32:15.103Z,19.32
2018-09-30T02:33:15.128Z,19.13
2018-09-30T02:34:15.164Z,19.79
2018-09-30T02:35:15.197Z,20.06
2018-09-30T02:36:15.232Z,19.87
2018-09-30T02:37:15.272Z,20.35
2018-09-30T02:38:15.313Z,19.87
2018-09-30T02:39:15.352Z,19.31
2018-09-30T02:40:15.387Z,19.21
2018-09-30T02:41:15.414Z,20.06
2018-09-30T02:42:15.448Z,19.87
2018-09-30T02:43:15.485Z,20.06
2018-09-30T02:44:15.521Z,19.87
2018-09-30T02:45:15.559Z,19.31
2018-09-30T02:46:15.596Z,18.46
2018-09-30T02:47:15.629Z,17.88
2018-09-30T02:48:15.679Z,17.69
2018-09-30T02:49:15.703Z,17.41
2018-09-30T02:50:15.739Z,17.32
2018-09-30T02:51:15.776Z,17.60
2018-09-30T02:52:15.813Z,17.69
2018-09-30T02:53:15.848Z,18.55
2018-09-30T02:54:15.885Z,18.84
2018-09-30T02:55:15.930Z,18.93
2018-09-30T02:56:15.959Z,18.65
2018-09-30T02:57:16.004Z,18.27
2018-09-30T02:58:16.031Z,18.36
2018-09-30T02:59:16.089Z,18.55
2018-09-30T03:00:16.103Z,18.46
2018-09-30T03:01:16.142Z,18.55
2018-09-30T03:02:16.177Z,18.74
2018-09-30T03:03:16.214Z,18.55
2018-09-30T03:04:16.266Z,17.69
2018-09-30T03:05:16.296Z,16.47
2018-09-30T03:06:16.322Z,16.47
2018-09-30T03:07:16.361Z,16.56
2018-09-30T03:08:16.397Z,16.56
2018-09-30T03:09:16.452Z,17.13
2018-09-30T03:10:16.469Z,16.85
2018-09-30T03:11:16.505Z,16.56
2018-09-30T03:12:16.540Z,17.13
2018-09-30T03:13:16.578Z,17.32
2018-09-30T03:14:16.617Z,17.41
2018-09-30T03:15:16.649Z,18.36
2018-09-30T03:16:16.724Z,18.74
2018-09-30T03:17:16.722Z,18.46
2018-09-30T03:18:16.762Z,17.79
2018-09-30T03:19:16.795Z,17.32
2018-09-30T03:20:16.832Z,17.88
2018-09-30T03:21:17.624Z,17.22
2018-09-30T03:22:16.904Z,16.94
2018-09-30T03:23:16.947Z,16.37
2018-09-30T03:24:16.977Z,16.66
2018-09-30T03:25:17.013Z,17.41
2018-09-30T03:26:17.052Z,17.22
2018-09-30T03:27:17.186Z,17.32
2018-09-30T03:28:17.122Z,16.66
2018-09-30T03:29:17.161Z,16.47
2018-09-30T03:30:17.193Z,16.94
2018-09-30T03:31:17.239Z,16.66
2018-09-30T03:32:17.268Z,17.32
2018-09-30T03:33:17.304Z,17.13
2018-09-30T03:34:17.340Z,17.69
2018-09-30T03:35:17.391Z,17.88
2018-09-30T03:36:17.414Z,18.65
2018-09-30T03:37:17.448Z,18.55
2018-09-30T03:38:17.499Z,19.59
2018-09-30T03:39:17.523Z,19.68
2018-09-30T03:40:17.557Z,19.68
2018-09-30T03:41:17.595Z,18.46
2018-09-30T03:42:17.630Z,18.36
2018-09-30T03:43:17.668Z,18.65
2018-09-30T03:44:17.704Z,18.74
2018-09-30T03:45:17.740Z,18.65
2018-09-30T03:46:17.777Z,18.84
2018-09-30T03:47:17.811Z,20.16
2018-09-30T03:48:17.848Z,20.25
2018-09-30T03:49:17.889Z,19.97
2018-09-30T03:50:17.927Z,19.40
2018-09-30T03:51:17.956Z,19.21
2018-09-30T03:52:17.994Z,19.21
2018-09-30T03:53:18.032Z,19.49
2018-09-30T03:54:18.064Z,19.87
2018-09-30T03:55:18.101Z,19.78
2018-09-30T03:56:18.139Z,19.21
2018-09-30T03:57:18.178Z,19.12
2018-09-30T03:58:18.210Z,18.74
2018-09-30T03:59:18.246Z,18.65
2018-09-30T04:00:18.282Z,18.74
2018-09-30T04:01:18.319Z,18.27
2018-09-30T04:02:18.355Z,17.79
2018-09-30T04:03:18.392Z,17.32
2018-09-30T04:04:18.429Z,17.13
2018-09-30T04:05:18.466Z,16.47
2018-09-30T04:06:18.504Z,17.13
2018-09-30T04:07:18.537Z,17.13
2018-09-30T04:08:18.580Z,17.22
2018-09-30T04:09:18.609Z,17.13
2018-09-30T04:10:18.645Z,16.75
2018-09-30T04:11:18.680Z,16.93
2018-09-30T04:12:18.718Z,16.37
2018-09-30T04:13:18.755Z,16.09
2018-09-30T04:14:18.790Z,16.85
2018-09-30T04:15:18.831Z,16.37
2018-09-30T04:16:18.861Z,16.09
2018-09-30T04:17:18.921Z,16.18
2018-09-30T04:18:18.935Z,16.56
2018-09-30T04:19:18.970Z,17.03
2018-09-30T04:20:19.016Z,17.13
2018-09-30T04:21:19.046Z,17.69
2018-09-30T04:22:19.081Z,17.98
2018-09-30T04:23:19.122Z,17.79
2018-09-30T04:24:19.152Z,17.88
2018-09-30T04:25:19.189Z,18.46
2018-09-30T04:26:19.224Z,18.55
2018-09-30T04:27:19.259Z,18.93
2018-09-30T04:28:19.297Z,19.12
2018-09-30T04:29:19.334Z,19.87
2018-09-30T04:30:19.367Z,20.34
2018-09-30T04:31:19.404Z,20.15
2018-09-30T04:32:19.441Z,19.87
2018-09-30T04:33:19.587Z,20.06
2018-09-30T04:34:19.514Z,20.06
2018-09-30T04:35:19.550Z,19.96
2018-09-30T04:36:19.585Z,20.43
2018-09-30T04:37:19.623Z,19.87
2018-09-30T04:38:19.658Z,19.01
2018-09-30T04:39:19.695Z,18.26
2018-09-30T04:40:19.731Z,17.50
2018-09-30T04:41:19.767Z,17.22
2018-09-30T04:42:19.807Z,17.79
2018-09-30T04:43:19.839Z,18.16
2018-09-30T04:44:19.877Z,18.27
2018-09-30T04:45:19.912Z,18.55
2018-09-30T04:46:19.949Z,18.07
2018-09-30T04:47:19.983Z,17.31
2018-09-30T04:48:20.029Z,17.22
2018-09-30T04:49:20.058Z,16.93
2018-09-30T04:50:20.092Z,17.03
2018-09-30T04:51:20.128Z,17.12
2018-09-30T04:52:20.164Z,18.07
2018-09-30T04:53:20.199Z,18.73
2018-09-30T04:54:20.239Z,19.58
2018-09-30T04:55:20.274Z,19.58
2018-09-30T04:56:20.309Z,18.63
2018-09-30T04:57:20.347Z,18.35
2018-09-30T04:58:20.379Z,17.79
2018-09-30T04:59:20.416Z,17.41
2018-09-30T05:00:20.451Z,17.69
2018-09-30T05:01:20.487Z,17.22
2018-09-30T05:02:20.523Z,17.31
2018-09-30T05:03:20.559Z,17.22
2018-09-30T05:04:20.596Z,17.50
2018-09-30T05:05:20.631Z,17.79
2018-09-30T05:06:20.667Z,18.44
2018-09-30T05:07:20.711Z,18.26
2018-09-30T05:08:20.740Z,17.97
2018-09-30T05:09:20.778Z,18.16
2018-09-30T05:10:20.812Z,16.84
2018-09-30T05:11:20.848Z,17.31
2018-09-30T05:12:20.986Z,17.22
2018-09-30T05:13:20.920Z,17.31
2018-09-30T05:14:20.957Z,17.41
2018-09-30T05:15:20.994Z,17.88
2018-09-30T05:16:21.063Z,18.26
2018-09-30T05:17:21.066Z,19.30
2018-09-30T05:18:21.101Z,19.58
2018-09-30T05:19:21.137Z,20.43
2018-09-30T05:20:21.176Z,20.72
2018-09-30T05:21:21.210Z,20.72
2018-09-30T05:22:21.245Z,20.43
2018-09-30T05:23:21.289Z,20.53
2018-09-30T05:24:21.318Z,20.62
2018-09-30T05:25:21.353Z,20.53
2018-09-30T05:26:21.388Z,20.34
2018-09-30T05:27:21.425Z,19.77
2018-09-30T05:28:21.466Z,20.06
2018-09-30T05:29:21.497Z,20.06
2018-09-30T05:30:21.533Z,19.87
2018-09-30T05:31:21.639Z,19.39
2018-09-30T05:32:21.604Z,19.68
2018-09-30T05:33:21.640Z,19.20
2018-09-30T05:34:21.686Z,19.39
2018-09-30T05:35:21.711Z,20.06
2018-09-30T05:36:21.748Z,19.87
2018-09-30T05:37:21.785Z,20.34
2018-09-30T05:38:21.828Z,20.62
2018-09-30T05:39:21.856Z,20.53
2018-09-30T05:40:21.894Z,20.53
2018-09-30T05:41:21.932Z,20.53
2018-09-30T05:42:21.982Z,20.34
2018-09-30T05:43:22.001Z,20.90
2018-09-30T05:44:22.040Z,21.09
2018-09-30T05:45:22.072Z,21.38
2018-09-30T05:46:22.113Z,22.33
2018-09-30T05:47:22.150Z,22.23
2018-09-30T05:48:22.184Z,22.33
2018-09-30T05:49:22.216Z,22.71
2018-09-30T05:50:22.311Z,22.52
2018-09-30T05:51:22.288Z,21.95
2018-09-30T05:52:22.325Z,21.66
2018-09-30T05:53:22.362Z,21.47
2018-09-30T05:54:22.398Z,21.09
2018-09-30T05:55:22.441Z,21.67
2018-09-30T05:56:22.469Z,21.95
2018-09-30T05:57:22.515Z,21.66
2018-09-30T05:58:22.539Z,22.05
2018-09-30T05:59:22.578Z,21.85
2018-09-30T06:00:22.614Z,22.24
2018-09-30T06:01:22.649Z,22.24
2018-09-30T06:02:22.688Z,22.81
2018-09-30T06:03:22.720Z,23.00
2018-09-30T06:04:22.757Z,23.00
2018-09-30T06:05:22.794Z,22.71
2018-09-30T06:06:22.827Z,22.62
2018-09-30T06:07:22.865Z,22.52
2018-09-30T06:08:22.899Z,22.24
2018-09-30T06:09:22.994Z,21.95
2018-09-30T06:10:22.977Z,21.67
2018-09-30T06:11:23.017Z,20.92
2018-09-30T06:12:23.046Z,21.01
2018-09-30T06:13:23.081Z,21.58
2018-09-30T06:14:23.122Z,21.01
2018-09-30T06:15:23.154Z,21.01
2018-09-30T06:16:23.189Z,21.01
2018-09-30T06:17:23.228Z,20.92
2018-09-30T06:18:23.269Z,20.44
2018-09-30T06:19:23.298Z,20.35
2018-09-30T06:20:23.334Z,19.78
2018-09-30T06:21:23.371Z,19.97
2018-09-30T06:22:23.407Z,19.97
2018-09-30T06:23:23.444Z,20.25
2018-09-30T06:24:23.479Z,20.44
2018-09-30T06:25:23.516Z,20.92
2018-09-30T06:26:23.551Z,20.73
2018-09-30T06:27:23.590Z,21.30
2018-09-30T06:28:23.622Z,21.11
2018-09-30T06:29:23.661Z,22.33
2018-09-30T06:30:23.696Z,22.43
2018-09-30T06:31:23.733Z,22.33
2018-09-30T06:32:23.794Z,23.00
2018-09-30T06:33:23.860Z,23.94
2018-09-30T06:34:23.841Z,24.04
2018-09-30T06:35:23.876Z,24.13
2018-09-30T06:36:23.915Z,24.13
2018-09-30T06:37:23.981Z,23.66
2018-09-30T06:38:23.991Z,23.75
2018-09-30T06:39:24.031Z,23.94
2018-09-30T06:40:24.090Z,23.85
2018-09-30T06:41:24.094Z,24.32
2018-09-30T06:42:24.130Z,24.32
2018-09-30T06:43:24.165Z,25.18
2018-09-30T06:44:24.205Z,24.70
2018-09-30T06:45:24.253Z,24.61
2018-09-30T06:46:24.275Z,24.99
2018-09-30T06:47:24.319Z,24.51
2018-09-30T06:48:24.348Z,24.89
2018-09-30T06:49:24.385Z,24.90
2018-09-30T06:50:24.430Z,24.24
2018-09-30T06:51:24.459Z,24.43
2018-09-30T06:52:24.496Z,24.71
2018-09-30T06:53:24.582Z,25.85
2018-09-30T06:54:24.571Z,26.42
2018-09-30T06:55:24.604Z,27.17
2018-09-30T06:56:24.644Z,27.46
2018-09-30T06:57:24.677Z,28.31
2018-09-30T06:58:24.717Z,28.31
2018-09-30T06:59:24.752Z,28.41
2018-09-30T07:00:24.797Z,28.50
2018-09-30T07:01:24.826Z,28.69
2018-09-30T07:02:24.864Z,28.59
2018-09-30T07:03:24.898Z,28.41
2018-09-30T07:04:24.936Z,28.50
2018-09-30T07:05:24.972Z,28.59
2018-09-30T07:06:25.107Z,28.70
2018-09-30T07:07:25.045Z,28.50
2018-09-30T07:08:25.091Z,28.33
2018-09-30T07:09:25.117Z,28.70
2018-09-30T07:10:25.151Z,28.80
2018-09-30T07:11:25.192Z,28.52
2018-09-30T07:12:25.227Z,29.65
2018-09-30T07:13:25.268Z,30.13
2018-09-30T07:14:25.302Z,30.13
2018-09-30T07:15:25.339Z,29.46
2018-09-30T07:16:25.373Z,29.94
2018-09-30T07:17:25.409Z,29.84
2018-09-30T07:18:25.445Z,29.75
2018-09-30T07:19:25.482Z,29.84
2018-09-30T07:20:25.520Z,29.56
2018-09-30T07:21:25.557Z,29.18
2018-09-30T07:22:25.685Z,29.46
2018-09-30T07:23:25.632Z,29.46
2018-09-30T07:24:25.667Z,28.61
2018-09-30T07:25:25.703Z,28.61
2018-09-30T07:26:25.739Z,28.61
2018-09-30T07:27:25.778Z,28.61
2018-09-30T07:28:25.820Z,28.99
2018-09-30T07:29:25.851Z,29.46
2018-09-30T07:30:25.891Z,29.65
2018-09-30T07:31:25.924Z,29.65
2018-09-30T07:32:25.969Z,29.75
2018-09-30T07:33:26.006Z,29.94
2018-09-30T07:34:26.035Z,30.88
2018-09-30T07:35:26.073Z,30.98
2018-09-30T07:36:26.108Z,31.64
2018-09-30T07:37:26.150Z,31.75
2018-09-30T07:38:26.182Z,31.95
2018-09-30T07:39:26.295Z,31.45
2018-09-30T07:40:26.256Z,31.18
2018-09-30T07:41:26.302Z,31.09
2018-09-30T07:42:26.332Z,31.18
2018-09-30T07:43:26.375Z,31.95
2018-09-30T07:44:26.404Z,31.75
2018-09-30T07:45:26.442Z,30.99
2018-09-30T07:46:26.478Z,30.71
2018-09-30T07:47:26.515Z,30.99
2018-09-30T07:48:26.553Z,31.09
2018-09-30T07:49:26.592Z,31.09
2018-09-30T07:50:26.627Z,30.62
2018-09-30T07:51:26.663Z,30.43
2018-09-30T07:52:26.704Z,30.80
2018-09-30T07:53:26.738Z,30.90
2018-09-30T07:54:26.775Z,31.28
2018-09-30T07:55:26.811Z,31.75
2018-09-30T07:56:26.851Z,32.14
2018-09-30T07:57:26.916Z,32.60
2018-09-30T07:58:26.932Z,32.81
2018-09-30T07:59:26.962Z,33.19
2018-09-30T08:00:27.001Z,33.38
2018-09-30T08:01:27.038Z,34.33
2018-09-30T08:02:27.074Z,34.42
2018-09-30T08:03:27.109Z,34.71
2018-09-30T08:04:27.152Z,35.57
2018-09-30T08:05:27.186Z,35.09
2018-09-30T08:06:27.265Z,35.09
2018-09-30T08:07:27.262Z,35.66
2018-09-30T08:08:27.309Z,35.47
2018-09-30T08:09:27.337Z,34.80
2018-09-30T08:10:27.372Z,34.42
2018-09-30T08:11:27.416Z,35.18
2018-09-30T08:12:27.447Z,35.09
2018-09-30T08:13:27.486Z,35.38
2018-09-30T08:14:27.538Z,35.20
2018-09-30T08:15:27.560Z,35.58
2018-09-30T08:16:27.654Z,35.20
2018-09-30T08:17:27.634Z,35.58
2018-09-30T08:18:27.672Z,35.96
2018-09-30T08:19:27.718Z,35.96
2018-09-30T08:20:27.747Z,36.05
2018-09-30T08:21:27.793Z,35.96
2018-09-30T08:22:27.821Z,37.01
2018-09-30T08:23:27.863Z,37.01
2018-09-30T08:24:27.923Z,37.01
2018-09-30T08:25:27.938Z,37.29
2018-09-30T08:26:27.972Z,37.57
2018-09-30T08:27:28.010Z,37.01
2018-09-30T08:28:28.055Z,39.47
2018-09-30T08:29:28.086Z,40.25
2018-09-30T08:30:28.124Z,39.49
2018-09-30T08:31:28.162Z,39.40
2018-09-30T08:32:28.199Z,41.01
2018-09-30T08:33:28.237Z,42.24
2018-09-30T08:34:28.275Z,42.82
2018-09-30T08:35:28.317Z,43.48
2018-09-30T08:36:28.406Z,45.57
2018-09-30T08:37:28.403Z,45.00
2018-09-30T08:38:28.426Z,46.61
2018-09-30T08:39:28.525Z,48.80
2018-09-30T08:40:28.503Z,49.55
2018-09-30T08:41:28.541Z,50.03
2018-09-30T08:42:28.577Z,51.20
2018-09-30T08:43:28.616Z,50.81
2018-09-30T08:44:28.658Z,52.24
2018-09-30T08:45:28.701Z,52.72
2018-09-30T08:46:28.738Z,53.00
2018-09-30T08:47:28.915Z,55.09
2018-09-30T08:48:28.807Z,53.19
2018-09-30T08:49:28.848Z,56.23
2018-09-30T08:50:28.881Z,55.85
2018-09-30T08:51:28.920Z,55.28
2018-09-30T08:52:28.958Z,55.18
2018-09-30T08:53:29.006Z,57.30
2018-09-30T08:54:29.034Z,59.65
2018-09-30T08:55:29.072Z,57.87
2018-09-30T08:56:29.112Z,60.44
2018-09-30T08:57:29.150Z,63.48
2018-09-30T08:58:29.188Z,65.47
2018-09-30T08:59:29.233Z,67.38
2018-09-30T09:00:29.274Z,65.57
2018-09-30T09:01:29.305Z,64.62
2018-09-30T09:02:29.350Z,65.19
2018-09-30T09:03:29.386Z,64.43
2018-09-30T09:04:29.418Z,66.05
2018-09-30T09:05:29.456Z,68.42
2018-09-30T09:06:29.495Z,66.71
2018-09-30T09:07:29.536Z,67.41
2018-09-30T09:08:29.575Z,71.12
2018-09-30T09:09:29.766Z,74.26
2018-09-30T09:10:29.659Z,76.06
2018-09-30T09:11:29.699Z,79.77
2018-09-30T09:12:29.731Z,82.81
2018-09-30T09:13:29.768Z,79.68
2018-09-30T09:14:29.807Z,79.11
2018-09-30T09:15:29.900Z,79.77
2018-09-30T09:16:29.890Z,80.86
2018-09-30T09:17:29.920Z,81.33
2018-09-30T09:18:29.959Z,81.90
2018-09-30T09:19:29.996Z,84.09
2018-09-30T09:20:30.042Z,84.56
2018-09-30T09:21:30.074Z,84.66
2018-09-30T09:22:30.179Z,86.76
2018-09-30T09:23:30.154Z,87.90
2018-09-30T09:24:30.192Z,87.13
2018-09-30T09:25:30.229Z,87.80
2018-09-30T09:26:30.275Z,87.90
2018-09-30T09:27:30.314Z,87.42
2018-09-30T09:28:30.345Z,88.60
2018-09-30T09:29:30.386Z,89.27
2018-09-30T09:30:30.465Z,90.22
2018-09-30T09:31:30.713Z,90.42
2018-09-30T09:32:30.501Z,90.51
2018-09-30T09:33:30.541Z,91.27
2018-09-30T09:34:30.603Z,91.65
2018-09-30T09:35:30.629Z,91.70
2018-09-30T09:36:30.709Z,91.46
2018-09-30T09:37:30.700Z,91.99
2018-09-30T09:38:30.748Z,93.32
2018-09-30T09:39:30.784Z,93.51
2018-09-30T09:40:30.827Z,92.18
2018-09-30T09:41:30.865Z,93.13
2018-09-30T09:42:30.904Z,94.08
2018-09-30T09:43:30.944Z,93.89
2018-09-30T09:44:30.984Z,94.27
2018-09-30T09:45:31.013Z,94.27
2018-09-30T09:46:31.053Z,95.60
2018-09-30T09:47:31.093Z,94.79
2018-09-30T09:48:31.134Z,94.79
2018-09-30T09:49:31.171Z,95.08
2018-09-30T09:50:31.211Z,94.98
2018-09-30T09:51:31.247Z,94.98
2018-09-30T09:52:31.335Z,94.41
2018-09-30T09:53:31.329Z,96.75
2018-09-30T09:54:31.367Z,96.17
2018-09-30T09:55:31.405Z,96.75
2018-09-30T09:56:31.445Z,95.79
2018-09-30T09:57:31.485Z,95.89
2018-09-30T09:58:31.526Z,96.56
2018-09-30T09:59:31.641Z,95.98
2018-09-30T10:00:31.612Z,97.03
2018-09-30T10:01:31.652Z,97.03
2018-09-30T10:02:31.683Z,96.51
2018-09-30T10:03:31.744Z,97.66
2018-09-30T10:04:31.777Z,97.46
2018-09-30T10:05:31.807Z,97.37
2018-09-30T10:06:31.851Z,96.98
2018-09-30T10:07:31.886Z,96.70
2018-09-30T10:08:31.925Z,97.66
2018-09-30T10:09:31.967Z,96.70
2018-09-30T10:10:32.005Z,97.75
2018-09-30T10:11:32.044Z,96.98
2018-09-30T10:12:32.087Z,96.89
2018-09-30T10:13:32.126Z,96.89
2018-09-30T10:14:32.165Z,98.03
2018-09-30T10:15:32.204Z,96.70
2018-09-30T10:16:32.243Z,96.61
2018-09-30T10:17:32.284Z,97.94
2018-09-30T10:18:32.325Z,97.94
2018-09-30T10:19:32.431Z,96.13
2018-09-30T10:20:32.402Z,96.75
2018-09-30T10:21:32.445Z,97.22
2018-09-30T10:22:32.485Z,96.37
2018-09-30T10:23:32.535Z,96.46
2018-09-30T10:24:32.567Z,96.75
2018-09-30T10:25:32.605Z,96.46
2018-09-30T10:26:32.643Z,96.46
2018-09-30T10:27:32.689Z,97.03
2018-09-30T10:28:32.724Z,96.37
2018-09-30T10:29:32.768Z,95.61
2018-09-30T10:30:32.805Z,96.75
2018-09-30T10:31:32.848Z,96.75
2018-09-30T10:32:32.885Z,96.75
2018-09-30T10:33:32.930Z,95.51
2018-09-30T10:34:32.980Z,96.66
2018-09-30T10:35:33.006Z,95.61
2018-09-30T10:36:33.053Z,95.94
2018-09-30T10:37:33.090Z,96.70
2018-09-30T10:38:33.284Z,94.60
2018-09-30T10:39:33.168Z,93.74
2018-09-30T10:40:33.211Z,93.93
2018-09-30T10:41:33.254Z,93.74
2018-09-30T10:42:33.291Z,93.26
2018-09-30T10:43:33.336Z,94.22
2018-09-30T10:44:33.372Z,94.12
2018-09-30T10:45:33.424Z,94.41
2018-09-30T10:46:33.459Z,94.03
2018-09-30T10:47:33.496Z,94.07
2018-09-30T10:48:33.550Z,93.02
2018-09-30T10:49:33.576Z,93.12
2018-09-30T10:50:33.615Z,94.46
2018-09-30T10:51:33.660Z,94.74
2018-09-30T10:52:33.723Z,94.17
2018-09-30T10:53:33.876Z,94.84
2018-09-30T10:54:33.779Z,93.79
2018-09-30T10:55:33.821Z,93.12
2018-09-30T10:56:33.861Z,93.50
2018-09-30T10:57:33.902Z,93.31
2018-09-30T10:58:33.995Z,93.21
2018-09-30T10:59:33.986Z,92.45
2018-09-30T11:00:34.221Z,92.45
2018-09-30T11:01:34.067Z,91.88
2018-09-30T11:02:34.123Z,92.07
2018-09-30T11:03:34.258Z,92.07
2018-09-30T11:04:34.195Z,91.69
2018-09-30T11:05:34.239Z,92.21
2018-09-30T11:06:34.269Z,92.59
2018-09-30T11:07:34.315Z,92.69
2018-09-30T11:08:34.354Z,92.40
2018-09-30T11:09:34.402Z,92.30
2018-09-30T11:10:34.438Z,91.83
2018-09-30T11:11:34.484Z,91.25
2018-09-30T11:12:34.527Z,92.02
2018-09-30T11:13:34.560Z,92.02
2018-09-30T11:14:34.610Z,91.93
2018-09-30T11:15:34.662Z,92.21
2018-09-30T11:16:34.689Z,92.79
2018-09-30T11:17:34.729Z,92.59
2018-09-30T11:18:34.776Z,92.79
2018-09-30T11:19:34.805Z,92.59
2018-09-30T11:20:34.846Z,92.40
2018-09-30T11:21:34.897Z,93.16
2018-09-30T11:22:34.973Z,92.59
2018-09-30T11:23:34.980Z,92.16
2018-09-30T11:24:35.013Z,91.93
2018-09-30T11:25:35.052Z,91.97
2018-09-30T11:26:35.095Z,92.83
2018-09-30T11:27:35.146Z,92.74
2018-09-30T11:28:35.187Z,92.64
2018-09-30T11:29:35.218Z,93.60
2018-09-30T11:30:35.258Z,93.40
2018-09-30T11:31:35.317Z,92.64
2018-09-30T11:32:35.343Z,91.68
2018-09-30T11:33:35.383Z,92.16
2018-09-30T11:34:35.425Z,91.49
2018-09-30T11:35:35.469Z,91.97
2018-09-30T11:36:35.511Z,91.97
2018-09-30T11:37:35.551Z,91.78
2018-09-30T11:38:35.594Z,90.92
2018-09-30T11:39:35.637Z,91.06
2018-09-30T11:40:35.682Z,91.25
2018-09-30T11:41:35.724Z,91.25
2018-09-30T11:42:35.811Z,90.96
2018-09-30T11:43:35.816Z,91.16
2018-09-30T11:44:35.842Z,90.58
2018-09-30T11:45:35.884Z,88.95
2018-09-30T11:46:35.925Z,88.95
2018-09-30T11:47:36.000Z,88.95
2018-09-30T11:48:36.035Z,89.15
2018-09-30T11:49:36.049Z,90.39
2018-09-30T11:50:36.119Z,89.05
2018-09-30T11:51:36.132Z,88.67
2018-09-30T11:52:36.203Z,88.76
2018-09-30T11:53:36.226Z,88.67
2018-09-30T11:54:36.257Z,89.34
2018-09-30T11:55:36.308Z,89.53
2018-09-30T11:56:36.351Z,88.67
2018-09-30T11:57:36.533Z,89.43
2018-09-30T11:58:36.424Z,88.67
2018-09-30T11:59:36.470Z,88.38
2018-09-30T12:00:36.509Z,88.67
2018-09-30T12:01:36.551Z,88.38
2018-09-30T12:02:36.591Z,87.14
2018-09-30T12:03:36.631Z,86.94
2018-09-30T12:04:36.676Z,87.14
2018-09-30T12:05:36.719Z,87.81
2018-09-30T12:06:36.760Z,86.90
2018-09-30T12:07:36.807Z,86.22
2018-09-30T12:08:36.844Z,86.22
2018-09-30T12:09:36.885Z,87.08
2018-09-30T12:10:36.932Z,87.37
2018-09-30T12:11:36.979Z,87.08
2018-09-30T12:12:37.013Z,87.08
2018-09-30T12:13:37.060Z,87.18
2018-09-30T12:14:37.096Z,87.47
2018-09-30T12:15:37.136Z,87.37
2018-09-30T12:16:37.185Z,87.90
2018-09-30T12:17:37.228Z,88.43
2018-09-30T12:18:37.318Z,87.27
2018-09-30T12:19:37.313Z,86.80
2018-09-30T12:20:37.347Z,86.90
2018-09-30T12:21:37.388Z,86.61
2018-09-30T12:22:37.429Z,85.75
2018-09-30T12:23:37.475Z,87.18
2018-09-30T12:24:37.514Z,85.69
2018-09-30T12:25:37.672Z,85.02
2018-09-30T12:26:37.762Z,84.92
2018-09-30T12:27:37.646Z,84.55
2018-09-30T12:28:37.685Z,84.26
2018-09-30T12:29:37.723Z,83.68
2018-09-30T12:30:37.765Z,82.53
2018-09-30T12:31:37.808Z,83.68
2018-09-30T12:32:37.852Z,82.92
2018-09-30T12:33:37.897Z,83.30
2018-09-30T12:34:37.936Z,83.20
2018-09-30T12:35:37.986Z,83.87
2018-09-30T12:36:38.022Z,82.06
2018-09-30T12:37:38.113Z,82.24
2018-09-30T12:38:38.102Z,81.43
2018-09-30T12:39:38.161Z,80.76
2018-09-30T12:40:38.196Z,79.70
2018-09-30T12:41:38.236Z,80.27
2018-09-30T12:42:38.271Z,80.90
2018-09-30T12:43:38.317Z,81.23
2018-09-30T12:44:38.357Z,82.53
2018-09-30T12:45:38.406Z,80.71
2018-09-30T12:46:38.444Z,82.00
2018-09-30T12:47:38.489Z,81.00
2018-09-30T12:48:38.536Z,80.33
2018-09-30T12:49:38.569Z,80.81
2018-09-30T12:50:38.609Z,79.51
2018-09-30T12:51:38.676Z,79.47
2018-09-30T12:52:38.698Z,79.18